createdAt,value
2018-04-25T00:00:04.528Z,78.71
2018-04-25T00:06:08.970Z,79.23
2018-04-25T00:12:13.434Z,79.27
2018-04-25T00:18:17.843Z,79.05
2018-04-25T00:24:22.261Z,78.79
2018-04-25T00:30:27.420Z,78.99
2018-04-25T00:36:31.967Z,79.14
2018-04-25T00:42:36.335Z,78.61
2018-04-25T00:48:40.724Z,78.92
2018-04-25T00:54:45.131Z,79.34
2018-04-25T01:00:49.499Z,79.41
2018-04-25T01:06:53.934Z,79.40
2018-04-25T01:12:59.241Z,78.91
2018-04-25T01:19:03.640Z,79.12
2018-04-25T01:25:09.816Z,78.90
2018-04-25T01:31:33.669Z,79.08
2018-04-25T01:37:55.505Z,78.61
2018-04-25T01:43:59.928Z,78.50
2018-04-25T01:50:15.158Z,78.10
2018-04-25T01:56:37.379Z,78.82
2018-04-25T02:02:47.599Z,79.78
2018-04-25T02:08:51.776Z,79.63
2018-04-25T02:14:56.323Z,79.03
2018-04-25T02:21:00.700Z,79.47
2018-04-25T02:27:05.189Z,79.65
2018-04-25T02:33:09.591Z,79.76
2018-04-25T02:39:14.153Z,79.60
2018-04-25T02:45:19.344Z,79.14
2018-04-25T02:51:24.011Z,77.00
2018-04-25T02:57:28.406Z,75.59
2018-04-25T03:03:32.786Z,71.65
2018-04-25T03:09:37.217Z,69.68
2018-04-25T03:15:41.615Z,70.63
2018-04-25T03:21:45.973Z,68.00
2018-04-25T03:27:50.415Z,68.26
2018-04-25T03:33:55.566Z,67.25
2018-04-25T03:39:59.919Z,66.33
2018-04-25T03:46:04.417Z,65.92
2018-04-25T03:52:08.781Z,65.33
2018-04-25T03:58:13.190Z,64.99
2018-04-25T04:04:17.888Z,64.74
2018-04-25T04:10:23.002Z,64.36
2018-04-25T04:16:27.634Z,63.89
2018-04-25T04:22:32.181Z,64.90
2018-04-25T04:28:36.621Z,63.67
2018-04-25T04:34:41.771Z,64.20
2018-04-25T04:40:46.186Z,64.67
2018-04-25T04:46:51.399Z,63.97
2018-04-25T04:52:55.768Z,65.65
2018-04-25T04:59:00.154Z,64.14
2018-04-25T05:05:05.451Z,63.95
2018-04-25T05:11:09.808Z,65.71
2018-04-25T05:17:14.211Z,64.30
2018-04-25T05:23:18.650Z,65.16
2018-04-25T05:29:23.872Z,65.30
2018-04-25T05:35:28.239Z,65.24
2018-04-25T05:41:32.603Z,64.80
2018-04-25T05:47:37.092Z,64.36
2018-04-25T05:53:41.814Z,64.04
2018-04-25T05:59:46.247Z,64.21
2018-04-25T06:05:50.638Z,64.46
2018-04-25T06:11:55.108Z,63.48
2018-04-25T06:17:59.488Z,62.67
2018-04-25T06:24:03.870Z,63.64
2018-04-25T06:30:08.351Z,63.22
2018-04-25T06:36:12.829Z,63.00
2018-04-25T06:42:17.203Z,62.57
2018-04-25T06:48:21.617Z,60.36
2018-04-25T06:54:25.993Z,60.31
2018-04-25T07:00:30.381Z,60.13
2018-04-25T07:06:35.515Z,59.07
2018-04-25T07:12:39.893Z,59.50
2018-04-25T07:18:44.233Z,58.18
2018-04-25T07:24:49.371Z,58.52
2018-04-25T07:30:53.803Z,59.54
2018-04-25T07:36:58.939Z,59.38
2018-04-25T07:43:03.295Z,60.28
2018-04-25T07:49:07.676Z,58.90
2018-04-25T07:55:12.058Z,60.50
2018-04-25T08:01:16.407Z,62.10
2018-04-25T08:07:20.770Z,63.07
2018-04-25T08:13:43.754Z,62.78
2018-04-25T08:20:05.907Z,64.20
2018-04-25T08:26:10.401Z,65.38
2018-04-25T08:32:14.782Z,66.25
2018-04-25T08:38:19.185Z,67.21
2018-04-25T08:44:23.604Z,67.50
2018-04-25T08:50:28.011Z,72.90
2018-04-25T08:56:32.772Z,74.96
2018-04-25T09:02:37.252Z,74.95
2018-04-25T09:08:41.603Z,75.14
2018-04-25T09:14:45.987Z,72.58
2018-04-25T09:20:50.355Z,70.21
2018-04-25T09:26:54.730Z,68.73
2018-04-25T09:32:59.146Z,67.32
2018-04-25T09:39:04.009Z,65.73
2018-04-25T09:45:08.411Z,66.15
2018-04-25T09:51:12.781Z,66.57
2018-04-25T09:57:17.212Z,65.79
2018-04-25T10:03:23.351Z,65.73
2018-04-25T10:09:27.907Z,65.12
2018-04-25T10:15:33.220Z,62.74
2018-04-25T10:21:37.697Z,60.45
2018-04-25T10:27:42.062Z,60.72
2018-04-25T10:33:46.431Z,56.36
2018-04-25T10:39:50.786Z,51.96
2018-04-25T10:45:55.977Z,50.72
2018-04-25T10:52:00.338Z,51.97
2018-04-25T10:58:06.315Z,53.14
2018-04-25T11:04:10.705Z,58.97
2018-04-25T11:10:15.104Z,62.50
2018-04-25T11:16:19.779Z,68.36
2018-04-25T11:22:24.178Z,69.61
2018-04-25T11:28:29.406Z,68.87
2018-04-25T11:34:33.922Z,67.01
2018-04-25T11:40:39.073Z,72.56
2018-04-25T11:46:43.444Z,72.80
2018-04-25T11:52:47.912Z,70.64
2018-04-25T11:58:52.282Z,70.61
2018-04-25T12:04:57.541Z,71.16
2018-04-25T12:11:01.919Z,71.44
2018-04-25T12:17:07.141Z,69.03
2018-04-25T12:23:11.515Z,66.45
2018-04-25T12:29:16.635Z,58.64
2018-04-25T12:35:21.005Z,60.23
2018-04-25T12:41:25.337Z,60.86
2018-04-25T12:47:30.427Z,59.10
2018-04-25T12:53:34.837Z,57.79
2018-04-25T12:59:39.967Z,59.09
2018-04-25T13:05:44.332Z,56.06
2018-04-25T13:11:49.551Z,55.52
2018-04-25T13:17:53.978Z,55.46
2018-04-25T13:23:58.344Z,49.97
2018-04-25T13:30:03.523Z,49.08
2018-04-25T13:36:08.667Z,48.98
2018-04-25T13:42:13.039Z,48.42
2018-04-25T13:48:17.396Z,46.34
2018-04-25T13:54:21.792Z,48.98
2018-04-25T14:00:26.152Z,50.09
2018-04-25T14:06:30.543Z,50.37
2018-04-25T14:12:34.896Z,51.79
2018-04-25T14:18:39.296Z,52.11
2018-04-25T14:24:43.731Z,52.80
2018-04-25T14:30:49.647Z,52.20
2018-04-25T14:36:54.024Z,50.40
2018-04-25T14:42:58.379Z,47.01
2018-04-25T14:49:03.612Z,44.83
2018-04-25T14:55:07.987Z,43.02
2018-04-25T15:01:12.365Z,44.31
2018-04-25T15:07:16.798Z,47.78
2018-04-25T15:13:21.936Z,50.51
2018-04-25T15:19:26.289Z,51.30
2018-04-25T15:25:30.730Z,47.38
2018-04-25T15:31:35.135Z,47.11
2018-04-25T15:37:39.542Z,48.49
2018-04-25T15:43:43.903Z,48.89
2018-04-25T15:49:48.378Z,51.89
2018-04-25T15:55:52.736Z,52.38
2018-04-25T16:01:57.118Z,53.45
2018-04-25T16:08:02.200Z,52.75
2018-04-25T16:14:08.083Z,54.18
2018-04-25T16:20:12.501Z,54.59
2018-04-25T16:26:17.794Z,54.72
2018-04-25T16:32:22.158Z,54.70
2018-04-25T16:38:27.432Z,49.73
2018-04-25T16:44:32.468Z,49.65
2018-04-25T16:50:36.815Z,52.04
2018-04-25T16:56:41.207Z,53.89
2018-04-25T17:02:45.560Z,54.59
2018-04-25T17:08:51.387Z,55.60
2018-04-25T17:14:55.762Z,56.69
2018-04-25T17:21:00.131Z,54.34
2018-04-25T17:27:05.273Z,54.52
2018-04-25T17:33:09.650Z,55.37
2018-04-25T17:39:14.047Z,57.42
2018-04-25T17:45:19.182Z,57.81
2018-04-25T17:51:23.541Z,58.29
2018-04-25T17:57:27.947Z,57.40
2018-04-25T18:03:32.288Z,56.47
2018-04-25T18:09:36.772Z,54.58
2018-04-25T18:15:41.173Z,52.90
2018-04-25T18:21:45.528Z,53.31
2018-04-25T18:27:50.093Z,53.12
2018-04-25T18:33:54.631Z,54.02
2018-04-25T18:39:59.780Z,54.72
2018-04-25T18:46:05.340Z,54.02
2018-04-25T18:52:09.750Z,54.90
2018-04-25T18:58:14.113Z,56.34
2018-04-25T19:04:18.503Z,57.53
2018-04-25T19:10:22.907Z,58.58
2018-04-25T19:16:27.324Z,58.30
2018-04-25T19:22:32.878Z,59.50
2018-04-25T19:28:37.577Z,59.55
2018-04-25T19:34:42.894Z,59.40
2018-04-25T19:40:47.337Z,59.14
2018-04-25T19:46:51.680Z,56.20
2018-04-25T19:52:56.051Z,55.65
2018-04-25T19:59:00.426Z,56.62
2018-04-25T20:05:04.896Z,56.60
2018-04-25T20:11:10.115Z,57.31
2018-04-25T20:17:14.570Z,56.47
2018-04-25T20:23:19.711Z,57.12
2018-04-25T20:29:24.140Z,58.56
2018-04-25T20:35:28.520Z,58.88
2018-04-25T20:41:33.013Z,63.11
2018-04-25T20:47:38.353Z,64.85
2018-04-25T20:53:42.713Z,65.76
2018-04-25T20:59:47.085Z,66.59
2018-04-25T21:05:51.452Z,67.71
2018-04-25T21:11:55.828Z,68.87
2018-04-25T21:18:00.206Z,69.47
2018-04-25T21:24:04.835Z,69.89
2018-04-25T21:30:09.978Z,70.37
2018-04-25T21:36:14.414Z,71.35
2018-04-25T21:42:18.903Z,71.26
2018-04-25T21:48:23.247Z,71.73
2018-04-25T21:54:28.374Z,72.03
2018-04-25T22:00:32.910Z,71.78
2018-04-25T22:06:37.324Z,72.87
2018-04-25T22:12:41.745Z,73.11
2018-04-25T22:18:46.180Z,73.06
2018-04-25T22:24:50.541Z,72.85
2018-04-25T22:30:54.911Z,73.78
2018-04-25T22:37:00.200Z,73.36
2018-04-25T22:43:04.649Z,74.31
2018-04-25T22:49:08.986Z,74.22
2018-04-25T22:55:13.485Z,75.00
2018-04-25T23:01:17.918Z,75.19
2018-04-25T23:07:22.270Z,76.64
2018-04-25T23:13:27.393Z,78.67
2018-04-25T23:19:31.985Z,77.60
2018-04-25T23:25:36.379Z,75.29
2018-04-25T23:31:40.723Z,77.49
2018-04-25T23:37:45.078Z,78.66
2018-04-25T23:43:50.226Z,79.56
2018-04-25T23:49:54.578Z,79.54
2018-04-25T23:55:58.926Z,79.48
